createdAt,value
2023-05-08T00:00:30.117Z,4.52
2023-05-08T00:02:57.663Z,4.58
2023-05-08T00:05:25.105Z,4.52
2023-05-08T00:07:53.797Z,4.48
2023-05-08T00:10:20.909Z,4.44
2023-05-08T00:12:48.490Z,4.40
2023-05-08T00:15:17.933Z,4.43
2023-05-08T00:17:45.004Z,4.25
2023-05-08T00:20:13.048Z,4.16
2023-05-08T00:22:43.850Z,4.11
2023-05-08T00:25:11.330Z,4.14
2023-05-08T00:27:38.867Z,4.06
2023-05-08T00:30:08.205Z,3.99
2023-05-08T00:32:36.407Z,3.88
2023-05-08T00:35:05.047Z,3.85
2023-05-08T00:37:33.446Z,3.65
2023-05-08T00:40:01.165Z,3.63
2023-05-08T00:42:29.377Z,3.73
2023-05-08T00:44:58.220Z,3.68
2023-05-08T00:47:25.371Z,3.67
2023-05-08T00:49:53.897Z,3.66
2023-05-08T00:52:22.956Z,3.60
2023-05-08T00:54:50.346Z,3.54
2023-05-08T00:57:19.004Z,3.58
2023-05-08T00:59:54.403Z,3.45
2023-05-08T01:02:22.145Z,3.45
2023-05-08T01:04:50.227Z,3.36
2023-05-08T01:07:18.320Z,3.36
2023-05-08T01:09:47.000Z,3.24
2023-05-08T01:12:36.010Z,3.29
2023-05-08T01:15:08.767Z,3.33
2023-05-08T01:17:50.308Z,3.26
2023-05-08T01:20:27.537Z,3.11
2023-05-08T01:23:18.444Z,3.20
2023-05-08T01:26:03.478Z,3.14
2023-05-08T01:28:46.792Z,3.14
2023-05-08T01:35:22.514Z,3.12
2023-05-08T01:38:11.028Z,3.07
2023-05-08T01:40:55.126Z,3.05
2023-05-08T01:43:55.919Z,2.91
2023-05-08T01:46:28.059Z,2.96
2023-05-08T01:49:08.641Z,2.93
2023-05-08T01:51:50.006Z,2.97
2023-05-08T01:54:23.342Z,2.88
2023-05-08T01:56:54.747Z,2.90
2023-05-08T01:59:25.044Z,2.87
2023-05-08T02:01:57.519Z,2.87
2023-05-08T02:04:26.545Z,2.89
2023-05-08T02:06:56.557Z,2.96
2023-05-08T02:09:25.539Z,2.99
2023-05-08T02:11:55.808Z,3.01
2023-05-08T02:14:24.437Z,3.05
2023-05-08T02:16:53.227Z,3.06
2023-05-08T02:19:23.934Z,3.18
2023-05-08T02:21:52.341Z,3.29
2023-05-08T02:24:24.574Z,3.29
2023-05-08T02:26:55.669Z,3.28
2023-05-08T02:29:25.348Z,3.22
2023-05-08T02:31:56.529Z,3.34
2023-05-08T02:34:24.902Z,3.35
2023-05-08T02:36:54.376Z,3.29
2023-05-08T02:39:27.201Z,3.39
2023-05-08T02:42:01.220Z,3.37
2023-05-08T02:44:28.980Z,3.44
2023-05-08T02:47:07.526Z,3.38
2023-05-08T02:49:51.158Z,3.37
2023-05-08T02:52:25.704Z,3.39
2023-05-08T02:55:04.884Z,3.49
2023-05-08T02:58:01.638Z,3.56
2023-05-08T03:00:35.705Z,3.51
2023-05-08T03:03:21.727Z,3.51
2023-05-08T03:05:54.551Z,3.61
2023-05-08T03:08:31.056Z,3.52
2023-05-08T03:11:03.461Z,3.60
2023-05-08T03:13:35.147Z,3.65
2023-05-08T03:16:05.872Z,3.65
2023-05-08T03:18:37.266Z,3.65
2023-05-08T03:21:07.120Z,3.78
2023-05-08T03:23:37.484Z,3.69
2023-05-08T03:26:08.223Z,3.64
2023-05-08T03:28:37.485Z,3.65
2023-05-08T03:31:07.795Z,3.51
2023-05-08T03:33:39.363Z,3.55
2023-05-08T03:36:08.136Z,3.40
2023-05-08T03:38:36.454Z,3.19
2023-05-08T03:41:10.499Z,3.25
2023-05-08T03:43:39.014Z,3.20
2023-05-08T03:46:09.306Z,3.19
2023-05-08T03:48:39.308Z,3.24
2023-05-08T03:51:06.528Z,3.37
2023-05-08T03:53:35.567Z,3.41
2023-05-08T03:56:03.171Z,3.27
2023-05-08T03:58:49.198Z,3.27
2023-05-08T04:01:29.422Z,3.30
2023-05-08T04:04:43.997Z,3.39
2023-05-08T04:07:25.038Z,3.40
2023-05-08T04:10:09.936Z,3.42
2023-05-08T04:12:57.191Z,3.39
2023-05-08T04:15:30.136Z,3.44
2023-05-08T04:18:05.326Z,3.54
2023-05-08T04:20:33.895Z,3.60
2023-05-08T04:23:02.585Z,3.78
2023-05-08T04:25:34.013Z,3.86
2023-05-08T04:28:02.966Z,3.95
2023-05-08T04:30:30.597Z,3.99
2023-05-08T04:32:59.824Z,4.14
2023-05-08T04:35:27.319Z,4.25
2023-05-08T04:37:55.516Z,4.39
2023-05-08T04:40:22.874Z,4.58
2023-05-08T04:42:50.255Z,4.72
2023-05-08T04:45:18.369Z,4.78
2023-05-08T04:47:45.932Z,4.75
2023-05-08T04:50:13.284Z,4.85
2023-05-08T04:52:40.690Z,4.84
2023-05-08T04:55:08.844Z,4.94
2023-05-08T04:57:36.406Z,4.99
2023-05-08T05:00:06.420Z,5.05
2023-05-08T05:02:33.630Z,5.15
2023-05-08T05:05:02.511Z,5.28
2023-05-08T05:07:32.282Z,5.49
2023-05-08T05:10:00.858Z,5.58
2023-05-08T05:12:30.204Z,5.64
2023-05-08T05:14:57.504Z,5.73
2023-05-08T05:17:24.699Z,5.81
2023-05-08T05:19:53.448Z,6.01
2023-05-08T05:22:21.202Z,6.18
2023-05-08T05:24:50.620Z,6.33
2023-05-08T05:27:19.909Z,6.46
2023-05-08T05:29:49.515Z,6.47
2023-05-08T05:32:16.910Z,6.63
2023-05-08T05:34:44.513Z,6.60
2023-05-08T05:37:11.906Z,6.58
2023-05-08T05:39:39.222Z,6.56
2023-05-08T05:42:07.940Z,6.64
2023-05-08T05:44:37.144Z,6.76
2023-05-08T05:47:10.433Z,6.70
2023-05-08T05:49:43.342Z,6.79
2023-05-08T05:52:11.018Z,6.80
2023-05-08T05:54:38.625Z,6.84
2023-05-08T05:57:06.898Z,6.94
2023-05-08T05:59:35.385Z,7.08
2023-05-08T06:02:02.877Z,7.23
2023-05-08T06:04:30.506Z,7.29
2023-05-08T06:06:58.444Z,7.35
2023-05-08T06:09:25.681Z,7.36
2023-05-08T06:11:53.146Z,7.26
2023-05-08T06:14:21.590Z,7.24
2023-05-08T06:16:48.735Z,7.28
2023-05-08T06:19:16.245Z,7.28
2023-05-08T06:21:45.704Z,7.46
2023-05-08T06:24:13.078Z,7.53
2023-05-08T06:26:40.507Z,7.70
2023-05-08T06:29:16.220Z,7.76
2023-05-08T06:31:43.609Z,7.90
2023-05-08T06:34:11.213Z,7.94
2023-05-08T06:36:39.554Z,7.88
2023-05-08T06:39:07.829Z,7.90
2023-05-08T06:41:34.977Z,7.84
2023-05-08T06:44:02.318Z,7.98
2023-05-08T06:46:30.346Z,8.21
2023-05-08T06:48:57.753Z,8.33
2023-05-08T06:51:25.315Z,8.46
2023-05-08T06:53:53.761Z,8.62
2023-05-08T06:56:27.384Z,8.57
2023-05-08T06:59:05.011Z,8.61
2023-05-08T07:01:40.803Z,8.48
2023-05-08T07:04:09.142Z,8.40
2023-05-08T07:06:36.622Z,8.41
2023-05-08T07:09:05.144Z,8.40
2023-05-08T07:11:33.673Z,8.50
2023-05-08T07:14:01.174Z,8.63
2023-05-08T07:16:28.563Z,8.68
2023-05-08T07:18:56.981Z,8.87
2023-05-08T07:21:24.500Z,9.06
2023-05-08T07:23:54.151Z,9.22
2023-05-08T07:26:22.210Z,9.17
2023-05-08T07:28:51.263Z,9.18
2023-05-08T07:31:18.943Z,9.20
2023-05-08T07:33:47.384Z,9.34
2023-05-08T07:36:14.917Z,9.56
2023-05-08T07:38:42.383Z,9.82
2023-05-08T07:41:12.170Z,10.07
2023-05-08T07:43:40.939Z,10.04
2023-05-08T07:46:16.233Z,10.23
2023-05-08T07:48:44.173Z,10.29
2023-05-08T07:51:12.430Z,10.47
2023-05-08T07:53:39.831Z,10.71
2023-05-08T07:56:12.984Z,10.78
2023-05-08T07:58:40.860Z,10.82
2023-05-08T08:01:09.470Z,10.88
2023-05-08T08:03:38.946Z,11.00
2023-05-08T08:06:06.349Z,10.82
2023-05-08T08:08:34.216Z,10.71
2023-05-08T08:11:03.703Z,10.67
2023-05-08T08:13:31.801Z,10.78
2023-05-08T08:16:01.653Z,10.79
2023-05-08T08:18:31.533Z,10.62
2023-05-08T08:20:58.743Z,10.67
2023-05-08T08:23:26.302Z,10.75
2023-05-08T08:25:53.860Z,10.81
2023-05-08T08:28:21.033Z,10.84
2023-05-08T08:30:48.881Z,11.24
2023-05-08T08:33:18.792Z,11.60
2023-05-08T08:35:46.531Z,11.77
2023-05-08T08:38:13.966Z,11.89
2023-05-08T08:40:42.504Z,11.85
2023-05-08T08:43:10.986Z,12.02
2023-05-08T08:45:39.638Z,12.14
2023-05-08T08:48:12.391Z,12.26
2023-05-08T08:50:46.747Z,12.57
2023-05-08T08:53:20.514Z,12.54
2023-05-08T08:55:50.708Z,12.46
2023-05-08T08:58:40.863Z,12.15
2023-05-08T09:01:18.299Z,11.93
2023-05-08T09:03:47.702Z,12.14
2023-05-08T09:06:17.882Z,12.36
2023-05-08T09:08:45.724Z,12.39
2023-05-08T09:11:14.322Z,12.29
2023-05-08T09:13:41.997Z,12.51
2023-05-08T09:16:09.301Z,12.82
2023-05-08T09:18:36.968Z,12.64
2023-05-08T09:21:06.945Z,12.86
2023-05-08T09:23:38.407Z,12.86
2023-05-08T09:26:05.761Z,13.12
2023-05-08T09:28:33.267Z,13.42
2023-05-08T09:31:01.932Z,13.81
2023-05-08T09:33:30.581Z,13.66
2023-05-08T09:35:58.579Z,13.74
2023-05-08T09:38:39.683Z,13.88
2023-05-08T09:41:17.203Z,13.99
2023-05-08T09:43:45.611Z,14.03
2023-05-08T09:46:24.002Z,14.11
2023-05-08T09:48:59.246Z,14.30
2023-05-08T09:51:28.327Z,14.46
2023-05-08T09:53:57.535Z,14.59
2023-05-08T09:56:40.051Z,14.67
2023-05-08T09:59:30.418Z,14.89
2023-05-08T10:01:58.750Z,14.50
2023-05-08T10:04:33.626Z,14.37
2023-05-08T10:07:02.390Z,14.43
2023-05-08T10:09:42.718Z,13.49
2023-05-08T10:12:17.233Z,14.01
2023-05-08T10:14:46.818Z,13.82
2023-05-08T10:17:20.742Z,14.27
2023-05-08T10:19:48.912Z,14.11
2023-05-08T10:22:20.110Z,14.66
2023-05-08T10:24:50.368Z,15.20
2023-05-08T10:27:35.061Z,15.49
2023-05-08T10:30:07.152Z,15.52
2023-05-08T10:32:44.503Z,15.68
2023-05-08T10:35:12.595Z,15.96
2023-05-08T10:37:42.657Z,16.29
2023-05-08T10:40:11.579Z,16.47
2023-05-08T10:42:41.586Z,16.65
2023-05-08T10:45:11.092Z,16.91
2023-05-08T10:47:59.610Z,17.19
2023-05-08T10:50:35.707Z,17.16
2023-05-08T10:53:26.316Z,17.20
2023-05-08T10:55:56.347Z,17.11
2023-05-08T10:58:52.856Z,16.98
2023-05-08T11:01:22.329Z,16.79
2023-05-08T11:03:52.969Z,16.26
2023-05-08T11:06:46.619Z,16.18
2023-05-08T11:09:22.312Z,16.46
2023-05-08T11:12:16.859Z,16.83
2023-05-08T11:14:54.202Z,17.35
2023-05-08T11:17:25.888Z,17.82
2023-05-08T11:20:04.526Z,18.33
2023-05-08T11:22:33.375Z,18.36
2023-05-08T11:25:10.023Z,18.68
2023-05-08T11:27:41.613Z,18.20
2023-05-08T11:30:33.568Z,18.29
2023-05-08T11:33:07.376Z,18.04
2023-05-08T11:35:54.187Z,18.01
2023-05-08T11:38:32.995Z,18.25
2023-05-08T11:41:11.511Z,18.46
2023-05-08T11:43:47.946Z,18.42
2023-05-08T11:46:17.625Z,18.92
2023-05-08T11:48:45.332Z,19.46
2023-05-08T11:51:13.902Z,19.71
2023-05-08T11:53:44.812Z,19.97
2023-05-08T11:56:12.375Z,19.27
2023-05-08T11:58:39.795Z,19.40
2023-05-08T12:01:08.385Z,19.87
2023-05-08T12:03:36.057Z,19.37
2023-05-08T12:06:04.897Z,19.80
2023-05-08T12:08:32.224Z,20.02
2023-05-08T12:11:00.302Z,19.92
2023-05-08T12:13:30.131Z,19.83
2023-05-08T12:16:01.438Z,20.09
2023-05-08T12:18:30.822Z,20.15
2023-05-08T12:21:00.174Z,19.76
2023-05-08T12:23:34.430Z,19.49
2023-05-08T12:26:02.509Z,19.51
2023-05-08T12:28:30.138Z,19.55
2023-05-08T12:31:04.793Z,20.12
2023-05-08T12:33:34.145Z,20.54
2023-05-08T12:36:03.525Z,20.65
2023-05-08T12:38:36.111Z,20.83
2023-05-08T12:41:04.884Z,21.19
2023-05-08T12:43:34.945Z,20.95
2023-05-08T12:46:04.430Z,19.97
2023-05-08T12:48:32.267Z,20.82
2023-05-08T12:51:04.645Z,19.87
2023-05-08T12:53:33.739Z,20.71
2023-05-08T12:56:05.352Z,21.29
2023-05-08T12:58:35.086Z,21.69
2023-05-08T13:01:10.408Z,21.70
2023-05-08T13:03:38.778Z,21.58
2023-05-08T13:06:07.741Z,21.71
2023-05-08T13:08:39.517Z,22.06
2023-05-08T13:11:07.925Z,21.97
2023-05-08T13:13:38.391Z,22.05
2023-05-08T13:16:08.562Z,21.73
2023-05-08T13:18:37.051Z,21.78
2023-05-08T13:21:04.385Z,22.00
2023-05-08T13:23:31.710Z,22.21
2023-05-08T13:26:00.269Z,22.34
2023-05-08T13:28:27.610Z,22.79
2023-05-08T13:30:54.732Z,22.87
2023-05-08T13:33:22.108Z,22.34
2023-05-08T13:35:49.489Z,21.87
2023-05-08T13:38:16.960Z,21.80
2023-05-08T13:40:46.544Z,21.98
2023-05-08T13:43:15.937Z,21.85
2023-05-08T13:45:43.518Z,22.09
2023-05-08T13:48:11.829Z,22.13
2023-05-08T13:50:39.348Z,22.47
2023-05-08T13:53:06.829Z,22.79
2023-05-08T13:55:34.371Z,23.19
2023-05-08T13:58:07.350Z,23.46
2023-05-08T14:00:34.982Z,24.03
2023-05-08T14:03:02.505Z,24.25
2023-05-08T14:05:29.958Z,23.24
2023-05-08T14:07:57.403Z,22.94
2023-05-08T14:10:24.914Z,22.80
2023-05-08T14:12:52.337Z,23.06
2023-05-08T14:15:19.787Z,22.34
2023-05-08T14:17:46.879Z,22.01
2023-05-08T14:20:14.424Z,21.43
2023-05-08T14:22:41.686Z,21.49
2023-05-08T14:25:10.434Z,20.85
2023-05-08T14:27:38.723Z,21.26
2023-05-08T14:30:08.344Z,21.87
2023-05-08T14:32:35.646Z,22.23
2023-05-08T14:35:10.657Z,21.97
2023-05-08T14:37:38.101Z,22.12
2023-05-08T14:40:06.600Z,21.83
2023-05-08T14:42:34.210Z,21.22
2023-05-08T14:45:01.702Z,21.63
2023-05-08T14:47:29.168Z,22.12
2023-05-08T14:50:04.850Z,22.28
2023-05-08T14:52:32.381Z,22.71
2023-05-08T14:55:02.458Z,22.45
2023-05-08T14:57:31.086Z,21.48
2023-05-08T14:59:59.592Z,21.44
2023-05-08T15:02:27.131Z,21.51
2023-05-08T15:04:54.601Z,20.65
2023-05-08T15:07:21.937Z,20.50
2023-05-08T15:09:49.512Z,21.06
2023-05-08T15:12:23.082Z,20.59
2023-05-08T15:14:50.486Z,21.03
2023-05-08T15:17:17.814Z,21.00
2023-05-08T15:19:46.341Z,20.66
2023-05-08T15:22:14.564Z,20.48
2023-05-08T15:24:42.007Z,20.91
2023-05-08T15:27:10.306Z,21.16
2023-05-08T15:29:40.134Z,21.21
2023-05-08T15:32:07.749Z,20.50
2023-05-08T15:34:35.129Z,20.70
2023-05-08T15:37:02.709Z,20.34
2023-05-08T15:39:30.024Z,20.07
2023-05-08T15:41:59.588Z,18.83
2023-05-08T15:44:37.675Z,18.83
2023-05-08T15:47:14.034Z,18.85
2023-05-08T15:49:41.445Z,19.12
2023-05-08T15:52:08.668Z,19.70
2023-05-08T15:54:43.712Z,20.30
2023-05-08T15:57:11.045Z,20.18
2023-05-08T15:59:38.339Z,20.07
2023-05-08T16:02:06.146Z,19.92
2023-05-08T16:04:35.326Z,19.99
2023-05-08T16:07:04.702Z,19.53
2023-05-08T16:09:31.841Z,19.52
2023-05-08T16:11:59.885Z,19.47
2023-05-08T16:14:27.539Z,19.39
2023-05-08T16:16:54.630Z,19.14
2023-05-08T16:19:21.873Z,18.90
2023-05-08T16:21:51.282Z,17.98
2023-05-08T16:24:18.878Z,17.82
2023-05-08T16:26:46.597Z,17.65
2023-05-08T16:29:14.203Z,17.86
2023-05-08T16:31:41.784Z,17.50
2023-05-08T16:34:10.321Z,17.25
2023-05-08T16:36:39.873Z,17.38
2023-05-08T16:39:08.121Z,17.49
2023-05-08T16:41:35.463Z,17.11
2023-05-08T16:44:03.923Z,17.05
2023-05-08T16:46:33.465Z,17.01
2023-05-08T16:49:00.869Z,17.14
2023-05-08T16:51:34.410Z,17.08
2023-05-08T16:54:02.172Z,16.92
2023-05-08T16:56:29.440Z,16.75
2023-05-08T16:58:58.783Z,16.78
2023-05-08T17:01:26.206Z,16.80
2023-05-08T17:03:53.458Z,16.74
2023-05-08T17:06:21.063Z,16.23
2023-05-08T17:08:49.383Z,16.10
2023-05-08T17:11:16.939Z,16.15
2023-05-08T17:13:46.553Z,15.93
2023-05-08T17:16:13.823Z,15.44
2023-05-08T17:18:42.322Z,15.07
2023-05-08T17:21:09.804Z,14.84
2023-05-08T17:23:37.222Z,14.83
2023-05-08T17:26:04.704Z,14.95
2023-05-08T17:28:32.409Z,15.07
2023-05-08T17:31:00.118Z,14.79
2023-05-08T17:33:27.786Z,14.94
2023-05-08T17:36:05.460Z,14.81
2023-05-08T17:38:32.939Z,14.65
2023-05-08T17:41:00.788Z,14.54
2023-05-08T17:43:28.986Z,14.48
2023-05-08T17:45:57.403Z,14.25
2023-05-08T17:48:25.040Z,14.09
2023-05-08T17:50:53.292Z,13.93
2023-05-08T17:53:20.621Z,13.93
2023-05-08T17:55:52.270Z,13.81
2023-05-08T17:58:19.452Z,13.40
2023-05-08T18:00:46.858Z,13.17
2023-05-08T18:03:14.585Z,13.00
2023-05-08T18:05:44.112Z,12.96
2023-05-08T18:08:14.681Z,12.97
2023-05-08T18:10:41.861Z,12.92
2023-05-08T18:13:09.411Z,12.84
2023-05-08T18:15:40.707Z,12.86
2023-05-08T18:18:08.523Z,12.86
2023-05-08T18:20:35.795Z,12.86
2023-05-08T18:23:02.936Z,12.88
2023-05-08T18:25:31.425Z,12.85
2023-05-08T18:28:00.935Z,12.75
2023-05-08T18:30:28.164Z,12.73
2023-05-08T18:32:56.001Z,12.68
2023-05-08T18:35:24.612Z,12.64
2023-05-08T18:37:53.540Z,12.65
2023-05-08T18:40:21.182Z,12.52
2023-05-08T18:42:50.747Z,12.45
2023-05-08T18:45:20.221Z,12.40
2023-05-08T18:47:48.451Z,12.28
2023-05-08T18:50:16.251Z,12.27
2023-05-08T18:52:44.267Z,12.11
2023-05-08T18:55:12.916Z,12.05
2023-05-08T18:57:40.404Z,12.07
2023-05-08T19:00:09.932Z,11.93
2023-05-08T19:02:41.193Z,11.95
2023-05-08T19:05:08.974Z,11.83
2023-05-08T19:07:37.954Z,11.76
2023-05-08T19:10:06.915Z,11.69
2023-05-08T19:12:35.425Z,11.60
2023-05-08T19:15:02.985Z,11.56
2023-05-08T19:17:30.420Z,11.44
2023-05-08T19:19:57.937Z,11.43
2023-05-08T19:22:26.778Z,11.23
2023-05-08T19:25:01.991Z,11.20
2023-05-08T19:27:29.469Z,11.13
2023-05-08T19:30:02.988Z,11.03
2023-05-08T19:32:33.421Z,10.86
2023-05-08T19:35:03.116Z,10.85
2023-05-08T19:37:30.428Z,10.75
2023-05-08T19:39:58.405Z,10.64
2023-05-08T19:42:26.249Z,10.59
2023-05-08T19:44:54.503Z,10.53
2023-05-08T19:47:21.978Z,10.45
2023-05-08T19:49:50.166Z,10.36
2023-05-08T19:52:17.348Z,10.31
2023-05-08T19:54:46.063Z,10.19
2023-05-08T19:57:13.678Z,10.12
2023-05-08T19:59:41.289Z,10.03
2023-05-08T20:02:08.833Z,10.00
2023-05-08T20:04:57.327Z,9.90
2023-05-08T20:07:25.708Z,9.69
2023-05-08T20:09:53.280Z,9.46
2023-05-08T20:12:20.553Z,9.10
2023-05-08T20:14:49.150Z,8.84
2023-05-08T20:17:16.368Z,8.80
2023-05-08T20:19:43.645Z,8.60
2023-05-08T20:22:12.339Z,8.56
2023-05-08T20:24:45.674Z,8.45
2023-05-08T20:27:14.141Z,8.34
2023-05-08T20:29:41.714Z,8.25
2023-05-08T20:32:13.941Z,8.12
2023-05-08T20:34:41.791Z,8.12
2023-05-08T20:37:16.312Z,7.99
2023-05-08T20:39:44.161Z,7.95
2023-05-08T20:42:13.049Z,8.05
2023-05-08T20:44:41.765Z,8.00
2023-05-08T20:47:09.075Z,7.92
2023-05-08T20:49:38.248Z,7.81
2023-05-08T20:52:12.208Z,7.92
2023-05-08T20:54:39.794Z,7.97
2023-05-08T20:57:08.527Z,7.81
2023-05-08T20:59:37.155Z,7.20
2023-05-08T21:02:04.593Z,6.92
2023-05-08T21:04:32.153Z,6.46
2023-05-08T21:06:59.546Z,6.16
2023-05-08T21:09:29.072Z,6.34
2023-05-08T21:11:56.456Z,6.68
2023-05-08T21:14:25.028Z,6.67
2023-05-08T21:16:54.303Z,6.77
2023-05-08T21:19:22.404Z,6.67
2023-05-08T21:21:51.954Z,6.61
2023-05-08T21:24:19.993Z,6.71
2023-05-08T21:26:48.336Z,6.63
2023-05-08T21:29:15.841Z,6.56
2023-05-08T21:31:44.304Z,6.60
2023-05-08T21:34:12.621Z,6.38
2023-05-08T21:36:39.905Z,6.22
2023-05-08T21:39:07.539Z,6.12
2023-05-08T21:41:34.739Z,6.06
2023-05-08T21:44:02.285Z,6.03
2023-05-08T21:46:29.409Z,6.05
2023-05-08T21:49:02.805Z,6.05
2023-05-08T21:51:30.356Z,6.09
2023-05-08T21:53:58.033Z,6.06
2023-05-08T21:56:26.731Z,6.07
2023-05-08T21:58:54.187Z,6.03
2023-05-08T22:01:21.892Z,5.90
2023-05-08T22:03:55.513Z,5.94
2023-05-08T22:06:24.391Z,5.88
2023-05-08T22:08:51.659Z,5.72
2023-05-08T22:11:19.269Z,5.23
2023-05-08T22:13:46.699Z,4.87
2023-05-08T22:16:14.128Z,4.86
2023-05-08T22:18:41.708Z,5.02
2023-05-08T22:21:10.193Z,4.80
2023-05-08T22:23:37.472Z,4.91
2023-05-08T22:26:04.995Z,4.90
2023-05-08T22:28:34.517Z,5.07
2023-05-08T22:31:01.929Z,5.09
2023-05-08T22:33:34.207Z,5.14
2023-05-08T22:36:01.560Z,5.13
2023-05-08T22:38:28.860Z,5.11
2023-05-08T22:40:57.746Z,5.08
2023-05-08T22:43:25.343Z,5.09
2023-05-08T22:45:53.531Z,5.07
2023-05-08T22:48:26.944Z,5.01
2023-05-08T22:50:54.419Z,5.00
2023-05-08T22:53:21.870Z,4.99
2023-05-08T22:55:50.348Z,4.98
2023-05-08T22:58:17.859Z,4.94
2023-05-08T23:00:51.047Z,5.01
2023-05-08T23:03:18.301Z,4.96
2023-05-08T23:05:49.219Z,4.84
2023-05-08T23:08:16.856Z,4.64
2023-05-08T23:10:44.486Z,4.12
2023-05-08T23:13:11.766Z,4.15
2023-05-08T23:15:39.267Z,4.23
2023-05-08T23:18:06.971Z,4.11
2023-05-08T23:20:38.025Z,4.17
2023-05-08T23:23:19.022Z,4.29
2023-05-08T23:25:46.467Z,4.36
2023-05-08T23:28:13.863Z,4.30
2023-05-08T23:30:41.372Z,4.17
2023-05-08T23:33:08.976Z,4.14
2023-05-08T23:35:38.544Z,4.10
2023-05-08T23:38:05.746Z,4.13
2023-05-08T23:40:33.186Z,4.13
2023-05-08T23:43:00.680Z,4.11
2023-05-08T23:45:28.868Z,3.75
2023-05-08T23:47:57.153Z,3.55
2023-05-08T23:50:24.602Z,3.66
2023-05-08T23:52:52.067Z,3.42
2023-05-08T23:55:20.696Z,3.63
2023-05-08T23:57:50.023Z,3.75
